Vaggasvarre — LIIJ — position and weather

sailwx.info

Track history (hours):
 
Tides and Currents Weather Stations Pressure Air Temp Water Temp Dewpoint Dewpoint Depression Visibility Wind Speed Wind Dir Waves Ship Positions

Vaggasvarre

Last reported at 2018-Aug-19 17:34 UTC. Time now 2018-Aug-20 16:17 UTC.
Position N 69°36' E 020°26'.

Length 65 m.

Type: Passenger vessel. MMSI: 257059800.

Date/timePositionNaut miles runAvg speedWind from/ knotsBaromVisibWave heightAir tempDewpointWater temp
2018-Aug-19 17:34N 69°36' E 020°26'110.4
2018-Aug-19 17:30N 69°36' E 020°28'0 0.3
2018-Aug-19 17:00N 69°36' E 020°28'5 7.3
2018-Aug-19 16:19N 69°35' E 020°14'410.1
2018-Aug-19 15:53N 69°36' E 020°26'2 4.4
2018-Aug-19 15:26N 69°36' E 020°32'611.3
2018-Aug-19 14:56N 69°35' E 020°16'3 4.3
2018-Aug-19 14:16N 69°36' E 020°24'310.3
2018-Aug-19 14:00N 69°36' E 020°32'2 4.4
2018-Aug-19 13:29N 69°36' E 020°25'4 6.8
2018-Aug-19 12:53N 69°35' E 020°14'410.0
2018-Aug-19 12:26N 69°36' E 020°26'2 4.5
2018-Aug-19 11:59N 69°36' E 020°32'610.8
2018-Aug-19 11:28N 69°35' E 020°16'4 5.7
2018-Aug-19 10:51N 69°36' E 020°26'2 4.3
2018-Aug-19 10:22N 69°36' E 020°32'6 6.8
2018-Aug-19 09:26N 69°35' E 020°14'511.0
2018-Aug-19 08:58N 69°36' E 020°29'0 0.5
2018-Aug-19 08:30N 69°36' E 020°28'2 0.1
2018-Aug-18 17:47N 69°35' E 020°22'310.1
2018-Aug-18 17:30N 69°36' E 020°30'2 3.0
2018-Aug-18 16:58N 69°36' E 020°26'4 6.6
2018-Aug-18 16:18N 69°35' E 020°14'410.3
2018-Aug-18 15:58N 69°36' E 020°24'3 4.8
2018-Aug-18 15:21N 69°36' E 020°32'611.0
2018-Aug-18 14:51N 69°35' E 020°16'0 0.0
2018-Aug-18 14:30N 69°35' E 020°16'5 9.9
2018-Aug-18 14:01N 69°36' E 020°30'1 1.4
2018-Aug-18 13:30N 69°36' E 020°28'5 6.7
2018-Aug-18 12:46N 69°35' E 020°14'310.5
2018-Aug-18 12:27N 69°36' E 020°24'3 5.3
2018-Aug-18 11:55N 69°36' E 020°32'511.6
2018-Aug-18 11:27N 69°35' E 020°17'3 5.1
2018-Aug-18 10:45N 69°36' E 020°26'2 3.7
2018-Aug-18 10:17N 69°36' E 020°31'6 7.6
2018-Aug-18 09:29N 69°35' E 020°14'5 9.9
2018-Aug-18 08:59N 69°36' E 020°28'1 1.3
2018-Aug-18 08:30N 69°36' E 020°29'5 0.4
2018-Aug-17 18:02N 69°35' E 020°14'4 9.6
2018-Aug-17 17:40N 69°36' E 020°24'2 9.9
2018-Aug-17 17:30N 69°36' E 020°29'1 2.0
2018-Aug-17 17:00N 69°36' E 020°26'4 6.0
2018-Aug-17 16:20N 69°35' E 020°15'3 9.3
2018-Aug-17 16:00N 69°36' E 020°23'3 5.8
2018-Aug-17 15:28N 69°36' E 020°32'611.7
2018-Aug-17 14:57N 69°35' E 020°15'3 4.6
2018-Aug-17 14:20N 69°35' E 020°23'3 2.3
2018-Aug-17 12:52N 69°35' E 020°14'4 9.7
2018-Aug-17 12:30N 69°36' E 020°24'3 5.6
2018-Aug-17 11:59N 69°36' E 020°32'610.7
2018-Aug-17 11:27N 69°35' E 020°16'4 5.1
2018-Aug-17 10:46N 69°36' E 020°26'1 2.8
2018-Aug-17 10:16N 69°36' E 020°30'310.6
2018-Aug-17 10:00N 69°35' E 020°22'3 5.6
2018-Aug-17 09:29N 69°35' E 020°14'4 0.2
2018-Aug-16 17:40N 69°36' E 020°24'2 9.9
2018-Aug-16 17:28N 69°36' E 020°30'5 6.5
2018-Aug-16 16:40N 69°35' E 020°16'1 1.7
2018-Aug-16 16:20N 69°35' E 020°14'310.0
2018-Aug-16 15:59N 69°36' E 020°23'3 5.1
2018-Aug-16 15:25N 69°36' E 020°31'511.5
2018-Aug-16 14:57N 69°35' E 020°17'3 3.9
2018-Aug-16 14:13N 69°36' E 020°24'210.5
2018-Aug-16 14:00N 69°36' E 020°31'3 4.8
2018-Aug-16 13:27N 69°35' E 020°23'3 5.2
2018-Aug-16 12:50N 69°35' E 020°15'3 9.4
2018-Aug-16 12:29N 69°36' E 020°24'3 6.1
2018-Aug-16 12:00N 69°36' E 020°32'610.2
2018-Aug-16 11:27N 69°35' E 020°17'2 4.0
2018-Aug-16 10:55N 69°35' E 020°22'3 5.7
2018-Aug-16 10:21N 69°36' E 020°31'6 7.1
2018-Aug-16 09:29N 69°35' E 020°15'510.3
2018-Aug-16 08:59N 69°36' E 020°29'0 0.9
2018-Aug-16 08:30N 69°36' E 020°28'5 7.4
2018-Aug-16 07:50N 69°35' E 020°14'4 9.6
2018-Aug-16 07:26N 69°36' E 020°25'0 0.0
2018-Aug-15 17:33N 69°36' E 020°26'1 9.7
2018-Aug-15 17:30N 69°36' E 020°28'0 0.6
2018-Aug-15 17:00N 69°36' E 020°27'5 6.4
2018-Aug-15 16:16N 69°35' E 020°14'411.1
2018-Aug-15 15:55N 69°36' E 020°25'2 3.6
2018-Aug-15 15:20N 69°36' E 020°30'611.3
2018-Aug-15 14:51N 69°35' E 020°15'4 5.5
2018-Aug-15 14:10N 69°36' E 020°25'210.1
2018-Aug-15 14:00N 69°36' E 020°30'6 4.9
2018-Aug-15 12:48N 69°35' E 020°14'410.5
2018-Aug-15 12:28N 69°36' E 020°24'3 5.3
2018-Aug-15 11:56N 69°36' E 020°32'611.7
2018-Aug-15 11:26N 69°35' E 020°16'3 0.2
2018-Aug-14 17:37N 69°36' E 020°24'110.8
2018-Aug-14 17:29N 69°36' E 020°28'0 0.4
2018-Aug-14 17:00N 69°36' E 020°28'5 7.0
2018-Aug-14 16:17N 69°35' E 020°14'411.2
2018-Aug-14 15:57N 69°36' E 020°24'3 4.5
2018-Aug-14 15:23N 69°36' E 020°32'511.7
2018-Aug-14 14:55N 69°35' E 020°17'2 3.3
2018-Aug-14 14:21N 69°35' E 020°21'3 4.8
2018-Aug-14 13:38N 69°36' E 020°31'1 9.7
2018-Aug-14 13:30N 69°36' E 020°28'2 1.4
2018-Aug-14 12:27N 69°36' E 020°24'3 4.9
2018-Aug-14 11:53N 69°36' E 020°31'512.0
2018-Aug-14 11:26N 69°35' E 020°16'4 5.2
2018-Aug-14 10:44N 69°36' E 020°26'2 4.4
2018-Aug-14 10:18N 69°36' E 020°32'6 7.5
2018-Aug-14 09:27N 69°35' E 020°14'510.6
2018-Aug-14 09:00N 69°36' E 020°27'1 1.1
2018-Aug-14 08:30N 69°36' E 020°29'2 1.5
2018-Aug-14 07:31N 69°36' E 020°24'3 3.5
2018-Aug-14 06:47N 69°36' E 020°31'2 0.1
2018-Aug-13 17:33N 69°36' E 020°26'1 9.8
2018-Aug-13 17:29N 69°36' E 020°28'0 0.2
2018-Aug-13 17:00N 69°36' E 020°28'5 7.2
2018-Aug-13 16:18N 69°35' E 020°14'410.7
2018-Aug-13 15:57N 69°36' E 020°24'3 4.1
2018-Aug-13 15:20N 69°36' E 020°31'511.4
2018-Aug-13 14:52N 69°35' E 020°17'3 4.6
2018-Aug-13 14:12N 69°36' E 020°25'210.7
2018-Aug-13 13:59N 69°36' E 020°32'2 5.3
2018-Aug-13 13:30N 69°36' E 020°25'4 5.4
2018-Aug-13 12:47N 69°35' E 020°14'411.4
2018-Aug-13 12:27N 69°36' E 020°24'2 4.2
2018-Aug-13 12:00N 69°36' E 020°30'511.0
2018-Aug-13 11:30N 69°35' E 020°15'4 5.4
2018-Aug-13 10:44N 69°36' E 020°26'2 4.1
2018-Aug-13 10:17N 69°36' E 020°31'610.4
2018-Aug-13 09:42N 69°35' E 020°14'0 0.3
2018-Aug-13 09:26N 69°35' E 020°14'611.1
2018-Aug-13 08:56N 69°36' E 020°29'1 2.7
2018-Aug-13 08:30N 69°36' E 020°26'4 6.2
2018-Aug-13 07:49N 69°35' E 020°15'410.0
2018-Aug-13 07:26N 69°36' E 020°25'2 3.8
2018-Aug-13 06:52N 69°36' E 020°31'6 0.5
2018-Aug-12 18:04N 69°35' E 020°14'1 9.8
2018-Aug-12 17:58N 69°35' E 020°17'511.4
2018-Aug-12 17:30N 69°36' E 020°31'1 1.9
2018-Aug-12 17:01N 69°36' E 020°28'1 0.7
2018-Aug-12 15:57N 69°36' E 020°26'2 3.9
2018-Aug-12 15:25N 69°36' E 020°32'6 7.4
2018-Aug-12 14:33N 69°35' E 020°14'1 8.9
2018-Aug-12 14:29N 69°34' E 020°15'6 7.6
2018-Aug-12 13:43N 69°36' E 020°31'511.4
2018-Aug-12 13:15N 69°35' E 020°17'1 0.0
2018-Aug-11 17:56N 69°35' E 020°15'511.0
2018-Aug-11 17:28N 69°36' E 020°29'1 1.9
2018-Aug-11 17:00N 69°36' E 020°26'1 0.8
2018-Aug-11 16:01N 69°36' E 020°24'0 8.8
2018-Aug-11 15:58N 69°36' E 020°25'2 4.1
2018-Aug-11 15:23N 69°36' E 020°32'6 8.2
2018-Aug-11 14:36N 69°35' E 020°14'410.0
2018-Aug-11 14:11N 69°36' E 020°25'210.4
2018-Aug-11 13:59N 69°36' E 020°31'1 2.2
2018-Aug-11 13:29N 69°36' E 020°28'1 1.3
2018-Aug-11 12:27N 69°36' E 020°24'3 5.7
2018-Aug-11 11:59N 69°36' E 020°32'610.4
2018-Aug-11 11:25N 69°35' E 020°15'3 5.3
2018-Aug-11 10:50N 69°36' E 020°23'0 0.0
2018-Aug-10 17:41N 69°35' E 020°22'211.1
2018-Aug-10 17:30N 69°36' E 020°28'0 0.7
2018-Aug-10 17:00N 69°36' E 020°27'5 6.7
2018-Aug-10 16:17N 69°35' E 020°14'410.8
2018-Aug-10 15:55N 69°36' E 020°25'2 5.7
2018-Aug-10 15:30N 69°36' E 020°32'510.9
2018-Aug-10 15:00N 69°35' E 020°17'3 4.3
2018-Aug-10 14:18N 69°36' E 020°25'2 4.3
2018-Aug-10 13:48N 69°36' E 020°31'6 7.9
2018-Aug-10 13:01N 69°35' E 020°14'0 7.2
2018-Aug-10 13:00N 69°35' E 020°14'510.2
2018-Aug-10 12:29N 69°36' E 020°28'1 2.5
2018-Aug-10 12:00N 69°36' E 020°25'1 0.6
2018-Aug-10 11:04N 69°36' E 020°27'110.6
2018-Aug-10 10:59N 69°36' E 020°29'0 0.1
2018-Aug-10 10:30N 69°36' E 020°29'5 6.4
2018-Aug-10 09:39N 69°35' E 020°14'3 8.6
2018-Aug-10 09:17N 69°35' E 020°22'3 9.0
2018-Aug-10 08:59N 69°36' E 020°30'1 1.6
2018-Aug-10 08:29N 69°36' E 020°28'5 7.5
2018-Aug-10 07:50N 69°35' E 020°14'410.0
2018-Aug-10 07:28N 69°36' E 020°24'2 3.6
2018-Aug-10 06:46N 69°36' E 020°31'3 0.2
2018-Aug-09 17:50N 69°36' E 020°24'  
Track history (hours):
 
Tides and Currents Weather Stations Pressure Air Temp Water Temp Dewpoint Dewpoint Depression Visibility Wind Speed Wind Dir Waves Ship Positions

Vaggasvarre

Last reported at 2018-Aug-19 17:34 UTC. Time now 2018-Aug-20 16:17 UTC.
Position N 69°36' E 020°26'.

Length 65 m.

Type: Passenger vessel. MMSI: 257059800.

Date/timePositionNaut miles runAvg speedWind from/ knotsBaromVisibWave heightAir tempDewpointWater temp
2018-Aug-19 17:34N 69°36' E 020°26'110.4
2018-Aug-19 17:30N 69°36' E 020°28'0 0.3
2018-Aug-19 17:00N 69°36' E 020°28'5 7.3
2018-Aug-19 16:19N 69°35' E 020°14'410.1
2018-Aug-19 15:53N 69°36' E 020°26'2 4.4
2018-Aug-19 15:26N 69°36' E 020°32'611.3
2018-Aug-19 14:56N 69°35' E 020°16'3 4.3
2018-Aug-19 14:16N 69°36' E 020°24'310.3
2018-Aug-19 14:00N 69°36' E 020°32'2 4.4
2018-Aug-19 13:29N 69°36' E 020°25'4 6.8
2018-Aug-19 12:53N 69°35' E 020°14'410.0
2018-Aug-19 12:26N 69°36' E 020°26'2 4.5
2018-Aug-19 11:59N 69°36' E 020°32'610.8
2018-Aug-19 11:28N 69°35' E 020°16'4 5.7
2018-Aug-19 10:51N 69°36' E 020°26'2 4.3
2018-Aug-19 10:22N 69°36' E 020°32'6 6.8
2018-Aug-19 09:26N 69°35' E 020°14'511.0
2018-Aug-19 08:58N 69°36' E 020°29'0 0.5
2018-Aug-19 08:30N 69°36' E 020°28'2 0.1
2018-Aug-18 17:47N 69°35' E 020°22'310.1
2018-Aug-18 17:30N 69°36' E 020°30'2 3.0
2018-Aug-18 16:58N 69°36' E 020°26'4 6.6
2018-Aug-18 16:18N 69°35' E 020°14'410.3
2018-Aug-18 15:58N 69°36' E 020°24'3 4.8
2018-Aug-18 15:21N 69°36' E 020°32'611.0
2018-Aug-18 14:51N 69°35' E 020°16'0 0.0
2018-Aug-18 14:30N 69°35' E 020°16'5 9.9
2018-Aug-18 14:01N 69°36' E 020°30'1 1.4
2018-Aug-18 13:30N 69°36' E 020°28'5 6.7
2018-Aug-18 12:46N 69°35' E 020°14'310.5
2018-Aug-18 12:27N 69°36' E 020°24'3 5.3
2018-Aug-18 11:55N 69°36' E 020°32'511.6
2018-Aug-18 11:27N 69°35' E 020°17'3 5.1
2018-Aug-18 10:45N 69°36' E 020°26'2 3.7
2018-Aug-18 10:17N 69°36' E 020°31'6 7.6
2018-Aug-18 09:29N 69°35' E 020°14'5 9.9
2018-Aug-18 08:59N 69°36' E 020°28'1 1.3
2018-Aug-18 08:30N 69°36' E 020°29'5 0.4
2018-Aug-17 18:02N 69°35' E 020°14'4 9.6
2018-Aug-17 17:40N 69°36' E 020°24'2 9.9
2018-Aug-17 17:30N 69°36' E 020°29'1 2.0
2018-Aug-17 17:00N 69°36' E 020°26'4 6.0
2018-Aug-17 16:20N 69°35' E 020°15'3 9.3
2018-Aug-17 16:00N 69°36' E 020°23'3 5.8
2018-Aug-17 15:28N 69°36' E 020°32'611.7
2018-Aug-17 14:57N 69°35' E 020°15'3 4.6
2018-Aug-17 14:20N 69°35' E 020°23'3 2.3
2018-Aug-17 12:52N 69°35' E 020°14'4 9.7
2018-Aug-17 12:30N 69°36' E 020°24'3 5.6
2018-Aug-17 11:59N 69°36' E 020°32'610.7
2018-Aug-17 11:27N 69°35' E 020°16'4 5.1
2018-Aug-17 10:46N 69°36' E 020°26'1 2.8
2018-Aug-17 10:16N 69°36' E 020°30'310.6
2018-Aug-17 10:00N 69°35' E 020°22'3 5.6
2018-Aug-17 09:29N 69°35' E 020°14'4 0.2
2018-Aug-16 17:40N 69°36' E 020°24'2 9.9
2018-Aug-16 17:28N 69°36' E 020°30'5 6.5
2018-Aug-16 16:40N 69°35' E 020°16'1 1.7
2018-Aug-16 16:20N 69°35' E 020°14'310.0
2018-Aug-16 15:59N 69°36' E 020°23'3 5.1
2018-Aug-16 15:25N 69°36' E 020°31'511.5
2018-Aug-16 14:57N 69°35' E 020°17'3 3.9
2018-Aug-16 14:13N 69°36' E 020°24'210.5
2018-Aug-16 14:00N 69°36' E 020°31'3 4.8
2018-Aug-16 13:27N 69°35' E 020°23'3 5.2
2018-Aug-16 12:50N 69°35' E 020°15'3 9.4
2018-Aug-16 12:29N 69°36' E 020°24'3 6.1
2018-Aug-16 12:00N 69°36' E 020°32'610.2
2018-Aug-16 11:27N 69°35' E 020°17'2 4.0
2018-Aug-16 10:55N 69°35' E 020°22'3 5.7
2018-Aug-16 10:21N 69°36' E 020°31'6 7.1
2018-Aug-16 09:29N 69°35' E 020°15'510.3
2018-Aug-16 08:59N 69°36' E 020°29'0 0.9
2018-Aug-16 08:30N 69°36' E 020°28'5 7.4
2018-Aug-16 07:50N 69°35' E 020°14'4 9.6
2018-Aug-16 07:26N 69°36' E 020°25'0 0.0
2018-Aug-15 17:33N 69°36' E 020°26'1 9.7
2018-Aug-15 17:30N 69°36' E 020°28'0 0.6
2018-Aug-15 17:00N 69°36' E 020°27'5 6.4
2018-Aug-15 16:16N 69°35' E 020°14'411.1
2018-Aug-15 15:55N 69°36' E 020°25'2 3.6
2018-Aug-15 15:20N 69°36' E 020°30'611.3
2018-Aug-15 14:51N 69°35' E 020°15'4 5.5
2018-Aug-15 14:10N 69°36' E 020°25'210.1
2018-Aug-15 14:00N 69°36' E 020°30'6 4.9
2018-Aug-15 12:48N 69°35' E 020°14'410.5
2018-Aug-15 12:28N 69°36' E 020°24'3 5.3
2018-Aug-15 11:56N 69°36' E 020°32'611.7
2018-Aug-15 11:26N 69°35' E 020°16'3 0.2
2018-Aug-14 17:37N 69°36' E 020°24'110.8
2018-Aug-14 17:29N 69°36' E 020°28'0 0.4
2018-Aug-14 17:00N 69°36' E 020°28'5 7.0
2018-Aug-14 16:17N 69°35' E 020°14'411.2
2018-Aug-14 15:57N 69°36' E 020°24'3 4.5
2018-Aug-14 15:23N 69°36' E 020°32'511.7
2018-Aug-14 14:55N 69°35' E 020°17'2 3.3
2018-Aug-14 14:21N 69°35' E 020°21'3 4.8
2018-Aug-14 13:38N 69°36' E 020°31'1 9.7
2018-Aug-14 13:30N 69°36' E 020°28'2 1.4
2018-Aug-14 12:27N 69°36' E 020°24'3 4.9
2018-Aug-14 11:53N 69°36' E 020°31'512.0
2018-Aug-14 11:26N 69°35' E 020°16'4 5.2
2018-Aug-14 10:44N 69°36' E 020°26'2 4.4
2018-Aug-14 10:18N 69°36' E 020°32'6 7.5
2018-Aug-14 09:27N 69°35' E 020°14'510.6
2018-Aug-14 09:00N 69°36' E 020°27'1 1.1
2018-Aug-14 08:30N 69°36' E 020°29'2 1.5
2018-Aug-14 07:31N 69°36' E 020°24'3 3.5
2018-Aug-14 06:47N 69°36' E 020°31'2 0.1
2018-Aug-13 17:33N 69°36' E 020°26'1 9.8
2018-Aug-13 17:29N 69°36' E 020°28'0 0.2
2018-Aug-13 17:00N 69°36' E 020°28'5 7.2
2018-Aug-13 16:18N 69°35' E 020°14'410.7
2018-Aug-13 15:57N 69°36' E 020°24'3 4.1
2018-Aug-13 15:20N 69°36' E 020°31'511.4
2018-Aug-13 14:52N 69°35' E 020°17'3 4.6
2018-Aug-13 14:12N 69°36' E 020°25'210.7
2018-Aug-13 13:59N 69°36' E 020°32'2 5.3
2018-Aug-13 13:30N 69°36' E 020°25'4 5.4
2018-Aug-13 12:47N 69°35' E 020°14'411.4
2018-Aug-13 12:27N 69°36' E 020°24'2 4.2
2018-Aug-13 12:00N 69°36' E 020°30'511.0
2018-Aug-13 11:30N 69°35' E 020°15'4 5.4
2018-Aug-13 10:44N 69°36' E 020°26'2 4.1
2018-Aug-13 10:17N 69°36' E 020°31'610.4
2018-Aug-13 09:42N 69°35' E 020°14'0 0.3
2018-Aug-13 09:26N 69°35' E 020°14'611.1
2018-Aug-13 08:56N 69°36' E 020°29'1 2.7
2018-Aug-13 08:30N 69°36' E 020°26'4 6.2
2018-Aug-13 07:49N 69°35' E 020°15'410.0
2018-Aug-13 07:26N 69°36' E 020°25'2 3.8
2018-Aug-13 06:52N 69°36' E 020°31'6 0.5
2018-Aug-12 18:04N 69°35' E 020°14'1 9.8
2018-Aug-12 17:58N 69°35' E 020°17'511.4
2018-Aug-12 17:30N 69°36' E 020°31'1 1.9
2018-Aug-12 17:01N 69°36' E 020°28'1 0.7
2018-Aug-12 15:57N 69°36' E 020°26'2 3.9
2018-Aug-12 15:25N 69°36' E 020°32'6 7.4
2018-Aug-12 14:33N 69°35' E 020°14'1 8.9
2018-Aug-12 14:29N 69°34' E 020°15'6 7.6
2018-Aug-12 13:43N 69°36' E 020°31'511.4
2018-Aug-12 13:15N 69°35' E 020°17'1 0.0
2018-Aug-11 17:56N 69°35' E 020°15'511.0
2018-Aug-11 17:28N 69°36' E 020°29'1 1.9
2018-Aug-11 17:00N 69°36' E 020°26'1 0.8
2018-Aug-11 16:01N 69°36' E 020°24'0 8.8
2018-Aug-11 15:58N 69°36' E 020°25'2 4.1
2018-Aug-11 15:23N 69°36' E 020°32'6 8.2
2018-Aug-11 14:36N 69°35' E 020°14'410.0
2018-Aug-11 14:11N 69°36' E 020°25'210.4
2018-Aug-11 13:59N 69°36' E 020°31'1 2.2
2018-Aug-11 13:29N 69°36' E 020°28'1 1.3
2018-Aug-11 12:27N 69°36' E 020°24'3 5.7
2018-Aug-11 11:59N 69°36' E 020°32'610.4
2018-Aug-11 11:25N 69°35' E 020°15'3 5.3
2018-Aug-11 10:50N 69°36' E 020°23'0 0.0
2018-Aug-10 17:41N 69°35' E 020°22'211.1
2018-Aug-10 17:30N 69°36' E 020°28'0 0.7
2018-Aug-10 17:00N 69°36' E 020°27'5 6.7
2018-Aug-10 16:17N 69°35' E 020°14'410.8
2018-Aug-10 15:55N 69°36' E 020°25'2 5.7
2018-Aug-10 15:30N 69°36' E 020°32'510.9
2018-Aug-10 15:00N 69°35' E 020°17'3 4.3
2018-Aug-10 14:18N 69°36' E 020°25'2 4.3
2018-Aug-10 13:48N 69°36' E 020°31'6 7.9
2018-Aug-10 13:01N 69°35' E 020°14'0 7.2
2018-Aug-10 13:00N 69°35' E 020°14'510.2
2018-Aug-10 12:29N 69°36' E 020°28'1 2.5
2018-Aug-10 12:00N 69°36' E 020°25'1 0.6
2018-Aug-10 11:04N 69°36' E 020°27'110.6
2018-Aug-10 10:59N 69°36' E 020°29'0 0.1
2018-Aug-10 10:30N 69°36' E 020°29'5 6.4
2018-Aug-10 09:39N 69°35' E 020°14'3 8.6
2018-Aug-10 09:17N 69°35' E 020°22'3 9.0
2018-Aug-10 08:59N 69°36' E 020°30'1 1.6
2018-Aug-10 08:29N 69°36' E 020°28'5 7.5
2018-Aug-10 07:50N 69°35' E 020°14'410.0
2018-Aug-10 07:28N 69°36' E 020°24'2 3.6
2018-Aug-10 06:46N 69°36' E 020°31'3 0.2
2018-Aug-09 17:50N 69°36' E 020°24'  

Dump ship's entire track history